Time;durP1;ratioP1;P1;durP2;ratioP2;P2;SDS_P1;SDS_P2;PMS_P1;PMS_P2;Temp;Humidity;BMP_temperature;BMP_pressure;BME280_temperature;BME280_humidity;BME280_pressure;Samples;Min_cycle;Max_cycle;Signal;HPM_P1;HPM_P2
2022/03/26 00:00:18;;;;;;;35.95;19.08;;;;;;;;;;6147267;23;20040;-81
2022/03/26 00:02:46;;;;;;;28.08;19.27;;;;;;;;;;6157564;23;20013;-80
2022/03/26 00:05:15;;;;;;;34.90;20.52;;;;;;;;;;6151456;23;20025;-80
2022/03/26 00:07:43;;;;;;;39.53;19.02;;;;;;;;;;6156909;23;20025;-80
2022/03/26 00:10:12;;;;;;;24.80;16.33;;;;;;;;;;6148984;23;20064;-80
2022/03/26 00:12:40;;;;;;;42.40;20.45;;;;;;;;;;6129271;23;20412;-80
2022/03/26 00:15:09;;;;;;;38.92;21.38;;;;;;;;;;6157875;23;20464;-81
2022/03/26 00:17:37;;;;;;;31.48;16.40;;;;;;;;;;6150875;23;20525;-80
2022/03/26 00:20:06;;;;;;;50.85;19.80;;;;;;;;;;6121371;23;20025;-80
2022/03/26 00:22:34;;;;;;;32.10;20.83;;;;;;;;;;6120561;23;20659;-80
2022/03/26 00:25:02;;;;;;;32.90;17.98;;;;;;;;;;6120898;23;20025;-80
2022/03/26 00:27:30;;;;;;;37.10;22.80;;;;;;;;;;6121630;23;20018;-80
2022/03/26 00:29:58;;;;;;;30.95;18.33;;;;;;;;;;6122727;23;20032;-80
2022/03/26 00:32:27;;;;;;;38.78;21.45;;;;;;;;;;6155191;23;20072;-80
2022/03/26 00:34:54;;;;;;;36.83;19.35;;;;;;;;;;6157688;23;20021;-80
2022/03/26 00:37:22;;;;;;;32.33;18.08;;;;;;;;;;6150563;23;20029;-80
2022/03/26 00:39:50;;;;;;;34.17;19.63;;;;;;;;;;6157666;23;20020;-80
2022/03/26 00:42:18;;;;;;;31.25;19.75;;;;;;;;;;6122092;23;20036;-80
2022/03/26 00:44:46;;;;;;;35.20;20.98;;;;;;;;;;6154294;23;20039;-80
2022/03/26 00:47:14;;;;;;;28.38;15.10;;;;;;;;;;6154789;23;20488;-81
2022/03/26 00:49:42;;;;;;;25.08;15.82;;;;;;;;;;6147495;23;20044;-81
2022/03/26 00:52:10;;;;;;;32.67;21.95;;;;;;;;;;6093637;23;20028;-80
2022/03/26 00:54:39;;;;;;;42.83;21.90;;;;;;;;;;6118382;23;20017;-80
2022/03/26 00:57:06;;;;;;;29.08;19.20;;;;;;;;;;6150769;23;20021;-80
2022/03/26 00:59:34;;;;;;;25.17;14.93;;;;;;;;;;6147022;23;20394;-81
2022/03/26 01:02:04;;;;;;;24.02;17.55;;;;;;;;;;6119042;23;20041;-81
2022/03/26 01:04:39;;;;;;;38.03;21.40;;;;;;;;;;6126347;23;20032;-81
2022/03/26 01:07:07;;;;;;;41.55;17.90;;;;;;;;;;6154975;23;20433;-80
2022/03/26 01:09:35;;;;;;;30.30;17.20;;;;;;;;;;6116378;23;20037;-80
2022/03/26 01:12:03;;;;;;;37.15;19.08;;;;;;;;;;6155365;23;20025;-80
2022/03/26 01:14:31;;;;;;;31.45;16.58;;;;;;;;;;6120532;23;20029;-80
2022/03/26 01:17:00;;;;;;;44.47;19.13;;;;;;;;;;6153052;23;20049;-80
2022/03/26 01:19:28;;;;;;;36.47;20.20;;;;;;;;;;6119093;23;20177;-80
2022/03/26 01:21:56;;;;;;;30.85;17.67;;;;;;;;;;6148920;23;20354;-78
2022/03/26 01:24:24;;;;;;;28.17;18.65;;;;;;;;;;6154553;23;20013;-79
2022/03/26 01:26:52;;;;;;;31.60;18.05;;;;;;;;;;6157025;23;20036;-79
2022/03/26 01:29:20;;;;;;;46.83;17.35;;;;;;;;;;6150736;23;20060;-78
2022/03/26 01:31:48;;;;;;;31.27;19.95;;;;;;;;;;6156409;23;20472;-78
2022/03/26 01:34:16;;;;;;;37.63;21.20;;;;;;;;;;6147116;23;20034;-78
2022/03/26 01:36:44;;;;;;;31.73;19.55;;;;;;;;;;6127200;23;20029;-79
2022/03/26 01:39:33;;;;;;;19.80;14.85;;;;;;;;;;6155013;23;20021;-79
2022/03/26 01:43:15;;;;;;;39.83;20.73;;;;;;;;;;6146258;23;20033;-78
2022/03/26 01:46:54;;;;;;;27.67;15.50;;;;;;;;;;6147536;23;20028;-78
2022/03/26 01:50:38;;;;;;;31.42;17.42;;;;;;;;;;6111207;23;20013;-78
2022/03/26 01:54:11;;;;;;;35.67;21.92;;;;;;;;;;6147287;23;20025;-78
2022/03/26 01:57:35;;;;;;;35.00;19.35;;;;;;;;;;6151994;23;20026;-79
2022/03/26 02:01:11;;;;;;;25.60;13.77;;;;;;;;;;6152921;23;20464;-78
2022/03/26 02:04:30;;;;;;;37.95;25.00;;;;;;;;;;6137475;23;20028;-80
2022/03/26 02:07:35;;;;;;;36.72;20.67;;;;;;;;;;6154239;23;20029;-80
2022/03/26 02:10:28;;;;;;;35.90;19.30;;;;;;;;;;6122131;23;20520;-80
2022/03/26 02:14:08;;;;;;;25.10;16.20;;;;;;;;;;6149883;23;20063;-80
2022/03/26 02:17:50;;;;;;;26.90;14.52;;;;;;;;;;6151521;23;20033;-80
2022/03/26 02:20:47;;;;;;;35.50;21.23;;;;;;;;;;6132790;23;20018;-80
2022/03/26 02:23:15;;;;;;;29.92;15.90;;;;;;;;;;6155081;23;20017;-80
2022/03/26 02:25:45;;;;;;;29.38;20.33;;;;;;;;;;6148649;23;20040;-80
2022/03/26 02:28:13;;;;;;;32.15;17.88;;;;;;;;;;6154955;23;20021;-80
2022/03/26 02:30:41;;;;;;;34.35;19.35;;;;;;;;;;6155912;23;20017;-80
2022/03/26 02:33:09;;;;;;;42.35;18.92;;;;;;;;;;6151098;23;20331;-80
2022/03/26 02:35:38;;;;;;;40.25;19.48;;;;;;;;;;6129674;23;20017;-80
2022/03/26 02:38:14;;;;;;;30.30;19.80;;;;;;;;;;6145199;23;20056;-80
2022/03/26 02:40:51;;;;;;;29.40;17.80;;;;;;;;;;6152649;23;20026;-80
2022/03/26 02:43:19;;;;;;;38.83;21.25;;;;;;;;;;6129644;23;20017;-80
2022/03/26 02:45:47;;;;;;;33.03;18.35;;;;;;;;;;6148907;23;20032;-80
2022/03/26 02:48:15;;;;;;;33.20;17.35;;;;;;;;;;6154837;23;20018;-80
2022/03/26 02:50:44;;;;;;;27.58;17.08;;;;;;;;;;6156038;23;20028;-80
2022/03/26 02:53:13;;;;;;;32.42;18.00;;;;;;;;;;6151235;23;20461;-80
2022/03/26 02:55:41;;;;;;;29.20;17.90;;;;;;;;;;6155962;23;20017;-80
2022/03/26 02:58:09;;;;;;;41.70;19.98;;;;;;;;;;6145206;23;20029;-80
2022/03/26 03:00:38;;;;;;;40.17;21.15;;;;;;;;;;6152607;23;20037;-80
2022/03/26 03:03:06;;;;;;;25.90;16.98;;;;;;;;;;6094827;23;20752;-80
2022/03/26 03:05:35;;;;;;;33.13;17.08;;;;;;;;;;6094517;23;20719;-80
2022/03/26 03:08:03;;;;;;;29.77;18.38;;;;;;;;;;6094555;23;20037;-80
2022/03/26 03:10:31;;;;;;;30.05;16.52;;;;;;;;;;6119078;23;20520;-80
2022/03/26 03:12:59;;;;;;;32.75;17.55;;;;;;;;;;6125083;23;20631;-80
2022/03/26 03:15:27;;;;;;;37.67;21.55;;;;;;;;;;6156363;23;20017;-80
2022/03/26 03:17:55;;;;;;;33.45;18.33;;;;;;;;;;6147977;23;20029;-80
2022/03/26 03:20:23;;;;;;;35.88;19.27;;;;;;;;;;6155045;23;20555;-80
2022/03/26 03:22:51;;;;;;;26.98;17.60;;;;;;;;;;6155403;23;20013;-80
2022/03/26 03:25:19;;;;;;;34.90;20.45;;;;;;;;;;6150200;23;20022;-79
2022/03/26 03:27:47;;;;;;;30.25;18.48;;;;;;;;;;6119653;23;20028;-80
2022/03/26 03:30:15;;;;;;;26.95;17.60;;;;;;;;;;6146256;23;20465;-80
2022/03/26 03:32:43;;;;;;;33.55;16.63;;;;;;;;;;6152402;23;20025;-80
2022/03/26 03:35:11;;;;;;;43.88;19.35;;;;;;;;;;6156088;23;20720;-80
2022/03/26 03:37:39;;;;;;;29.50;15.45;;;;;;;;;;6148082;23;20029;-80
2022/03/26 03:40:13;;;;;;;29.45;18.38;;;;;;;;;;6129153;23;20013;-80
2022/03/26 03:42:47;;;;;;;27.63;17.80;;;;;;;;;;6071693;23;20025;-80
2022/03/26 03:45:15;;;;;;;37.10;19.48;;;;;;;;;;6124798;23;20026;-80
2022/03/26 03:47:43;;;;;;;36.58;24.45;;;;;;;;;;6119097;23;20032;-80
2022/03/26 03:50:11;;;;;;;36.63;17.92;;;;;;;;;;6146510;23;20060;-80
2022/03/26 03:52:39;;;;;;;34.90;19.20;;;;;;;;;;6093618;23;20027;-80
2022/03/26 03:55:08;;;;;;;31.45;20.27;;;;;;;;;;6145027;23;20024;-80
2022/03/26 03:57:39;;;;;;;32.35;17.10;;;;;;;;;;6148174;23;20037;-80
2022/03/26 04:00:08;;;;;;;45.33;18.75;;;;;;;;;;6146776;23;20033;-80
2022/03/26 04:02:39;;;;;;;30.85;19.30;;;;;;;;;;6144257;23;20033;-80
2022/03/26 04:05:11;;;;;;;34.67;22.55;;;;;;;;;;6150872;23;20555;-80
2022/03/26 04:07:44;;;;;;;35.55;18.95;;;;;;;;;;6154719;23;20025;-80
2022/03/26 04:10:12;;;;;;;43.88;17.98;;;;;;;;;;6146403;23;20032;-80
2022/03/26 04:12:42;;;;;;;38.13;17.35;;;;;;;;;;6152494;23;20350;-80
2022/03/26 04:15:12;;;;;;;26.63;17.20;;;;;;;;;;6155409;23;20020;-80
2022/03/26 04:17:40;;;;;;;27.42;19.13;;;;;;;;;;6148141;23;20021;-80
2022/03/26 04:20:09;;;;;;;28.92;19.27;;;;;;;;;;6155259;23;20014;-80
2022/03/26 04:22:38;;;;;;;40.45;18.40;;;;;;;;;;6143860;23;20040;-80
2022/03/26 04:25:06;;;;;;;31.75;17.73;;;;;;;;;;6150679;23;20029;-80
2022/03/26 04:27:34;;;;;;;31.80;16.38;;;;;;;;;;6155987;23;20021;-80
2022/03/26 04:30:03;;;;;;;33.10;20.50;;;;;;;;;;6148324;23;20064;-80
2022/03/26 04:32:31;;;;;;;30.60;19.98;;;;;;;;;;6155676;23;20030;-80
2022/03/26 04:34:59;;;;;;;30.92;17.63;;;;;;;;;;6157842;23;20014;-80
2022/03/26 04:37:28;;;;;;;43.88;21.77;;;;;;;;;;6150516;23;20026;-80
2022/03/26 04:39:56;;;;;;;29.45;17.27;;;;;;;;;;6156503;23;20013;-80
2022/03/26 04:42:29;;;;;;;35.00;22.20;;;;;;;;;;6145154;23;20030;-80
2022/03/26 04:45:03;;;;;;;38.03;19.38;;;;;;;;;;6144684;23;20032;-80
2022/03/26 04:47:31;;;;;;;38.90;16.20;;;;;;;;;;6154878;23;20014;-80
2022/03/26 04:49:59;;;;;;;35.75;19.95;;;;;;;;;;6149230;23;20365;-80
2022/03/26 04:52:27;;;;;;;36.78;20.05;;;;;;;;;;6129174;23;20024;-80
2022/03/26 04:54:55;;;;;;;27.50;14.80;;;;;;;;;;6156308;23;20013;-81
2022/03/26 04:57:23;;;;;;;35.85;20.27;;;;;;;;;;6119467;23;20021;-80
2022/03/26 04:59:51;;;;;;;27.52;15.15;;;;;;;;;;6149978;23;20040;-80
2022/03/26 05:02:19;;;;;;;38.65;19.45;;;;;;;;;;6121012;23;20461;-80
2022/03/26 05:04:47;;;;;;;29.60;17.58;;;;;;;;;;6120341;23;20061;-80
2022/03/26 05:10:02;;;;;;;28.13;16.77;;;;;;;;;;6148234;23;20025;-80
2022/03/26 05:12:30;;;;;;;35.70;18.50;;;;;;;;;;6155254;23;20017;-80
2022/03/26 05:14:58;;;;;;;31.27;20.23;;;;;;;;;;6097162;23;20349;-80
2022/03/26 05:17:25;;;;;;;33.92;18.80;;;;;;;;;;6151233;23;20036;-80
2022/03/26 05:19:53;;;;;;;31.88;16.98;;;;;;;;;;6155984;23;20021;-80
2022/03/26 05:22:21;;;;;;;29.15;14.40;;;;;;;;;;6147091;23;20082;-80
2022/03/26 05:24:49;;;;;;;40.85;17.10;;;;;;;;;;6153789;23;20038;-80
2022/03/26 05:27:17;;;;;;;32.22;18.05;;;;;;;;;;6157226;23;20024;-80
2022/03/26 05:29:46;;;;;;;36.40;19.83;;;;;;;;;;6150019;23;20026;-80
2022/03/26 05:32:19;;;;;;;31.75;16.40;;;;;;;;;;6146085;23;20024;-80
2022/03/26 05:34:46;;;;;;;31.50;19.10;;;;;;;;;;6156863;23;20013;-80
2022/03/26 05:37:15;;;;;;;27.00;16.55;;;;;;;;;;6151708;23;20026;-80
2022/03/26 05:39:42;;;;;;;28.23;17.25;;;;;;;;;;6156341;23;20013;-80
2022/03/26 05:42:10;;;;;;;34.78;18.95;;;;;;;;;;6148533;23;20468;-80
2022/03/26 05:44:39;;;;;;;27.48;18.67;;;;;;;;;;6154874;23;20540;-80
2022/03/26 05:47:08;;;;;;;32.03;19.05;;;;;;;;;;6120396;23;20022;-80
2022/03/26 05:49:36;;;;;;;45.10;19.85;;;;;;;;;;6150045;23;20029;-80
2022/03/26 05:52:04;;;;;;;34.60;19.33;;;;;;;;;;6156828;23;20021;-80
2022/03/26 05:54:32;;;;;;;31.17;19.33;;;;;;;;;;6146211;23;20021;-80
2022/03/26 05:57:00;;;;;;;29.48;20.63;;;;;;;;;;6152283;23;20022;-80
2022/03/26 05:59:29;;;;;;;30.88;20.50;;;;;;;;;;6152093;23;20021;-78
2022/03/26 06:01:57;;;;;;;38.60;21.65;;;;;;;;;;6097565;23;20029;-79
2022/03/26 06:04:27;;;;;;;31.08;19.92;;;;;;;;;;6121198;23;20024;-78
2022/03/26 06:06:56;;;;;;;36.92;21.52;;;;;;;;;;6098200;23;20044;-78
2022/03/26 06:09:24;;;;;;;58.45;20.05;;;;;;;;;;6126359;23;20040;-78
2022/03/26 06:11:52;;;;;;;27.35;14.98;;;;;;;;;;6158909;23;20329;-78
2022/03/26 06:14:20;;;;;;;33.13;18.17;;;;;;;;;;6149169;23;20036;-78
2022/03/26 06:16:48;;;;;;;29.90;16.50;;;;;;;;;;6155773;23;20575;-79
2022/03/26 06:19:21;;;;;;;42.85;21.48;;;;;;;;;;6158395;23;20024;-78
2022/03/26 06:21:49;;;;;;;35.88;19.27;;;;;;;;;;6151583;23;20029;-79
2022/03/26 06:24:17;;;;;;;36.10;19.48;;;;;;;;;;6121659;23;20022;-78
2022/03/26 06:26:47;;;;;;;29.30;16.45;;;;;;;;;;6158330;23;20014;-79
2022/03/26 06:29:16;;;;;;;39.80;19.35;;;;;;;;;;6153637;23;20021;-78
2022/03/26 06:31:44;;;;;;;50.67;23.45;;;;;;;;;;6133113;23;20758;-78
2022/03/26 06:34:13;;;;;;;32.42;16.65;;;;;;;;;;6149430;23;20026;-78
2022/03/26 06:36:41;;;;;;;37.35;18.27;;;;;;;;;;6156008;23;20022;-78
2022/03/26 06:39:09;;;;;;;32.15;19.75;;;;;;;;;;6157494;23;20014;-79
2022/03/26 06:41:41;;;;;;;34.45;18.75;;;;;;;;;;6152298;23;20027;-79
2022/03/26 06:44:09;;;;;;;39.20;18.50;;;;;;;;;;6097820;23;20028;-79
2022/03/26 06:46:39;;;;;;;32.05;17.73;;;;;;;;;;6147908;23;20029;-78
2022/03/26 06:49:09;;;;;;;35.95;20.88;;;;;;;;;;6153532;23;20030;-79
2022/03/26 06:51:38;;;;;;;24.48;17.75;;;;;;;;;;6122093;23;20017;-79
2022/03/26 06:54:06;;;;;;;28.92;16.13;;;;;;;;;;6122850;23;20599;-79
2022/03/26 06:56:34;;;;;;;31.25;18.08;;;;;;;;;;6097321;23;20017;-79
2022/03/26 06:59:04;;;;;;;24.23;14.63;;;;;;;;;;6153960;23;20030;-79
2022/03/26 07:01:33;;;;;;;34.63;17.27;;;;;;;;;;6097180;23;20032;-79
2022/03/26 07:04:01;;;;;;;29.58;14.25;;;;;;;;;;6157879;23;20014;-79
2022/03/26 07:06:29;;;;;;;41.25;23.73;;;;;;;;;;6147879;23;20033;-79
2022/03/26 07:08:57;;;;;;;35.75;19.08;;;;;;;;;;6153353;23;20353;-79
2022/03/26 07:11:25;;;;;;;26.20;17.50;;;;;;;;;;6158486;23;20095;-79
2022/03/26 07:13:53;;;;;;;35.30;20.70;;;;;;;;;;6121465;23;20033;-79
2022/03/26 07:16:21;;;;;;;30.02;20.17;;;;;;;;;;6156554;23;20036;-79
2022/03/26 07:18:49;;;;;;;35.75;20.70;;;;;;;;;;6157310;23;20014;-79
2022/03/26 07:21:17;;;;;;;27.98;19.23;;;;;;;;;;6153031;23;20025;-79
2022/03/26 07:23:45;;;;;;;34.50;21.15;;;;;;;;;;6131639;23;20013;-78
2022/03/26 07:26:13;;;;;;;33.05;18.40;;;;;;;;;;6148997;23;20357;-79
2022/03/26 07:28:41;;;;;;;26.20;18.30;;;;;;;;;;6155035;23;20055;-78
2022/03/26 07:31:09;;;;;;;31.33;18.38;;;;;;;;;;6157933;23;20025;-79
2022/03/26 07:33:37;;;;;;;27.08;18.77;;;;;;;;;;6125601;23;20033;-79
2022/03/26 07:36:05;;;;;;;31.02;19.98;;;;;;;;;;6122073;23;20733;-78
2022/03/26 07:38:33;;;;;;;45.63;21.48;;;;;;;;;;6146744;23;20460;-78
2022/03/26 07:41:01;;;;;;;31.67;19.38;;;;;;;;;;6153988;23;20033;-78
2022/03/26 07:43:29;;;;;;;31.80;18.05;;;;;;;;;;6158149;23;20024;-78
2022/03/26 07:45:57;;;;;;;32.33;18.73;;;;;;;;;;6149832;23;20030;-78
2022/03/26 07:48:25;;;;;;;29.73;19.95;;;;;;;;;;6156250;23;20017;-78
2022/03/26 07:50:53;;;;;;;46.05;21.23;;;;;;;;;;6158380;23;20017;-78
2022/03/26 07:53:27;;;;;;;34.75;20.48;;;;;;;;;;6151488;23;20567;-78
2022/03/26 07:55:57;;;;;;;33.30;18.58;;;;;;;;;;6157313;23;20020;-78
2022/03/26 07:58:25;;;;;;;22.55;14.98;;;;;;;;;;6145884;23;20029;-77
2022/03/26 08:00:53;;;;;;;29.23;18.98;;;;;;;;;;6152866;23;20772;-77
2022/03/26 08:03:22;;;;;;;29.90;15.18;;;;;;;;;;6157618;23;20461;-77
2022/03/26 08:05:50;;;;;;;31.70;18.40;;;;;;;;;;6148813;23;20032;-77
2022/03/26 08:08:19;;;;;;;28.02;18.45;;;;;;;;;;6155599;23;20334;-77
2022/03/26 08:10:47;;;;;;;33.30;18.33;;;;;;;;;;6131079;23;20333;-77
2022/03/26 08:13:15;;;;;;;31.58;17.38;;;;;;;;;;6152190;23;20036;-80
2022/03/26 08:15:43;;;;;;;47.92;23.05;;;;;;;;;;6157907;23;20025;-78
2022/03/26 08:18:11;;;;;;;31.75;16.80;;;;;;;;;;6148103;23;20029;-78
2022/03/26 08:20:39;;;;;;;30.10;16.73;;;;;;;;;;6154029;23;20040;-79
2022/03/26 08:23:07;;;;;;;31.10;17.38;;;;;;;;;;6096728;23;20349;-78
2022/03/26 08:28:21;;;;;;;31.45;18.05;;;;;;;;;;6155520;23;20048;-77
2022/03/26 08:30:49;;;;;;;28.92;19.33;;;;;;;;;;6156435;23;20664;-81
2022/03/26 08:33:17;;;;;;;34.42;21.33;;;;;;;;;;6152335;23;20026;-78
2022/03/26 08:35:46;;;;;;;38.05;18.75;;;;;;;;;;6131423;23;20052;-80
2022/03/26 08:38:14;;;;;;;32.03;17.63;;;;;;;;;;6121224;23;20346;-78
2022/03/26 08:40:42;;;;;;;32.00;18.92;;;;;;;;;;6154558;23;20040;-77
2022/03/26 08:43:10;;;;;;;27.45;17.75;;;;;;;;;;6156895;23;20024;-77
2022/03/26 08:45:40;;;;;;;28.83;17.67;;;;;;;;;;6150303;23;20033;-77
2022/03/26 08:48:08;;;;;;;32.72;16.33;;;;;;;;;;6156414;23;20445;-77
2022/03/26 08:50:38;;;;;;;32.08;16.73;;;;;;;;;;6145970;23;20055;-75
2022/03/26 08:53:08;;;;;;;28.65;16.30;;;;;;;;;;6151805;23;20026;-77
2022/03/26 08:55:37;;;;;;;27.83;18.63;;;;;;;;;;6156882;23;20022;-78
2022/03/26 08:58:10;;;;;;;26.70;20.93;;;;;;;;;;6147393;23;20034;-75
2022/03/26 09:00:45;;;;;;;31.17;16.83;;;;;;;;;;6094991;23;20033;-75
2022/03/26 09:03:20;;;;;;;42.95;20.65;;;;;;;;;;6086470;23;20026;-76
2022/03/26 09:05:56;;;;;;;32.95;23.38;;;;;;;;;;6090261;23;20362;-77
2022/03/26 09:08:24;;;;;;;52.58;22.48;;;;;;;;;;6095681;23;20458;-77
2022/03/26 09:10:54;;;;;;;27.85;19.23;;;;;;;;;;6098589;23;20606;-77
2022/03/26 09:13:27;;;;;;;31.55;20.50;;;;;;;;;;6087578;23;20033;-78
2022/03/26 09:15:56;;;;;;;26.42;14.82;;;;;;;;;;6098395;23;20033;-76
2022/03/26 09:18:41;;;;;;;35.58;18.92;;;;;;;;;;6087895;23;20034;-75
2022/03/26 09:22:06;;;;;;;29.50;18.75;;;;;;;;;;6087606;23;20057;-77
2022/03/26 09:25:34;;;;;;;32.47;16.63;;;;;;;;;;6093254;23;20622;-78
2022/03/26 09:28:54;;;;;;;30.30;19.50;;;;;;;;;;6093826;23;20442;-79
2022/03/26 09:32:19;;;;;;;32.50;17.67;;;;;;;;;;6088280;23;20014;-78
2022/03/26 09:35:42;;;;;;;40.65;19.58;;;;;;;;;;6080368;23;20481;-79
2022/03/26 09:38:56;;;;;;;24.42;16.77;;;;;;;;;;6086083;23;20033;-78
2022/03/26 09:41:51;;;;;;;31.42;17.40;;;;;;;;;;6093049;23;20018;-79
2022/03/26 09:44:21;;;;;;;28.95;19.95;;;;;;;;;;6099017;23;20536;-78
2022/03/26 09:46:49;;;;;;;29.30;14.60;;;;;;;;;;6100004;23;20434;-79
2022/03/26 09:49:17;;;;;;;27.88;16.92;;;;;;;;;;6093053;23;20026;-77
2022/03/26 09:51:45;;;;;;;30.23;16.52;;;;;;;;;;6100289;23;20021;-77
2022/03/26 09:54:15;;;;;;;28.33;17.88;;;;;;;;;;6089856;23;20350;-77
2022/03/26 09:56:44;;;;;;;30.23;19.40;;;;;;;;;;6097565;23;20030;-77
2022/03/26 09:59:12;;;;;;;26.15;17.30;;;;;;;;;;6120232;23;20361;-81
2022/03/26 10:01:40;;;;;;;26.40;14.90;;;;;;;;;;6152516;23;20029;-79
2022/03/26 10:04:14;;;;;;;19.05;15.57;;;;;;;;;;6159607;23;20021;-79
2022/03/26 10:06:56;;;;;;;27.95;16.58;;;;;;;;;;6147546;23;20461;-77
2022/03/26 10:09:46;;;;;;;23.63;16.67;;;;;;;;;;6147431;23;20029;-78
2022/03/26 10:12:19;;;;;;;29.23;14.90;;;;;;;;;;6158156;23;20010;-77
2022/03/26 10:14:49;;;;;;;32.90;17.30;;;;;;;;;;6158984;23;20021;-80
2022/03/26 10:17:31;;;;;;;29.73;17.70;;;;;;;;;;6127035;23;20036;-77
2022/03/26 10:19:59;;;;;;;33.00;16.02;;;;;;;;;;6157770;23;20017;-78
2022/03/26 10:22:31;;;;;;;29.35;14.13;;;;;;;;;;6121892;23;20032;-78
2022/03/26 10:25:00;;;;;;;33.60;13.23;;;;;;;;;;6154831;23;20389;-77
2022/03/26 10:27:32;;;;;;;34.70;17.98;;;;;;;;;;6158744;23;20014;-76
2022/03/26 10:30:00;;;;;;;28.95;14.93;;;;;;;;;;6150403;23;20341;-77
2022/03/26 10:32:39;;;;;;;27.45;16.42;;;;;;;;;;6156712;23;20013;-77
2022/03/26 10:35:08;;;;;;;39.53;21.30;;;;;;;;;;6133228;23;20021;-77
2022/03/26 10:37:43;;;;;;;32.65;19.35;;;;;;;;;;6151478;23;20026;-77
2022/03/26 10:40:21;;;;;;;26.67;17.17;;;;;;;;;;6158706;23;20014;-79
2022/03/26 10:42:57;;;;;;;29.70;15.85;;;;;;;;;;6158797;23;20362;-76
2022/03/26 10:45:25;;;;;;;27.00;17.08;;;;;;;;;;6120252;23;20021;-78
2022/03/26 10:47:54;;;;;;;29.55;15.20;;;;;;;;;;6130548;23;20429;-76
2022/03/26 10:50:23;;;;;;;28.42;17.52;;;;;;;;;;6148586;23;20059;-76
2022/03/26 10:52:55;;;;;;;36.88;16.77;;;;;;;;;;6154121;23;20021;-76
2022/03/26 10:55:23;;;;;;;24.52;13.80;;;;;;;;;;6131023;23;20021;-77
2022/03/26 10:57:52;;;;;;;29.77;19.75;;;;;;;;;;6150717;23;20030;-78
2022/03/26 11:00:21;;;;;;;30.40;16.95;;;;;;;;;;6148883;23;20437;-76
2022/03/26 11:02:49;;;;;;;30.52;20.35;;;;;;;;;;6158315;23;20013;-76
2022/03/26 11:05:17;;;;;;;34.25;18.60;;;;;;;;;;6153356;23;20472;-75
2022/03/26 11:07:46;;;;;;;29.98;19.95;;;;;;;;;;6156784;23;20013;-74
2022/03/26 11:10:14;;;;;;;24.40;15.20;;;;;;;;;;6149390;23;20028;-76
2022/03/26 11:12:46;;;;;;;47.80;18.98;;;;;;;;;;6121259;23;20029;-76
2022/03/26 11:15:34;;;;;;;27.60;16.67;;;;;;;;;;6158605;23;20688;-75
2022/03/26 11:18:18;;;;;;;30.65;19.85;;;;;;;;;;6149471;23;20032;-76
2022/03/26 11:20:58;;;;;;;26.50;17.08;;;;;;;;;;6155326;23;20028;-76
2022/03/26 11:23:36;;;;;;;34.45;15.75;;;;;;;;;;6130884;23;20463;-75
2022/03/26 11:26:04;;;;;;;28.23;17.20;;;;;;;;;;6150356;23;20436;-76
2022/03/26 11:28:50;;;;;;;43.70;21.35;;;;;;;;;;6156109;23;20408;-76
2022/03/26 11:31:25;;;;;;;33.13;15.13;;;;;;;;;;6158535;23;20022;-77
2022/03/26 11:34:03;;;;;;;29.67;20.70;;;;;;;;;;6150187;23;20022;-76
2022/03/26 11:36:32;;;;;;;23.95;17.13;;;;;;;;;;6156328;23;20048;-73
2022/03/26 11:39:11;;;;;;;33.10;16.67;;;;;;;;;;6157288;23;20014;-76
2022/03/26 11:41:40;;;;;;;26.50;15.65;;;;;;;;;;6125485;23;20029;-80
2022/03/26 11:44:09;;;;;;;27.00;18.48;;;;;;;;;;6157918;23;20509;-77
2022/03/26 11:52:23;;;;;;;25.25;17.08;;;;;;;;;;6151306;23;20014;-74
2022/03/26 11:54:55;;;;;;;26.63;15.35;;;;;;;;;;6157977;23;20014;-76
2022/03/26 11:57:24;;;;;;;23.52;13.80;;;;;;;;;;6152029;23;20785;-76
2022/03/26 11:59:53;;;;;;;21.40;12.25;;;;;;;;;;6150294;23;20025;-76
2022/03/26 12:02:25;;;;;;;20.67;13.25;;;;;;;;;;6120757;23;20702;-76
2022/03/26 12:04:58;;;;;;;20.90;15.02;;;;;;;;;;6154406;23;20025;-76
2022/03/26 12:07:30;;;;;;;24.10;15.02;;;;;;;;;;6157145;23;20018;-74
2022/03/26 12:10:09;;;;;;;29.55;18.00;;;;;;;;;;6149642;23;20051;-74
2022/03/26 12:12:56;;;;;;;27.90;17.13;;;;;;;;;;6155184;23;20036;-74
2022/03/26 12:15:25;;;;;;;27.63;17.42;;;;;;;;;;6121806;23;20024;-75
2022/03/26 12:18:12;;;;;;;27.60;18.10;;;;;;;;;;6120020;23;20030;-77
2022/03/26 12:20:44;;;;;;;28.17;16.30;;;;;;;;;;6155201;23;20025;-74
2022/03/26 12:23:13;;;;;;;22.15;11.32;;;;;;;;;;6156977;23;20100;-74
2022/03/26 12:25:46;;;;;;;25.15;16.75;;;;;;;;;;6150831;23;20465;-75
2022/03/26 12:28:15;;;;;;;27.10;14.30;;;;;;;;;;6154644;23;20013;-73
2022/03/26 12:30:44;;;;;;;24.70;15.75;;;;;;;;;;6157517;23;20036;-74
2022/03/26 12:33:13;;;;;;;32.97;18.85;;;;;;;;;;6152610;23;20496;-76
2022/03/26 12:35:45;;;;;;;28.58;14.63;;;;;;;;;;6157311;23;20021;-78
2022/03/26 12:38:14;;;;;;;25.00;16.17;;;;;;;;;;6147011;23;20025;-78
2022/03/26 12:40:50;;;;;;;22.75;14.63;;;;;;;;;;6154312;23;20025;-81
2022/03/26 12:43:18;;;;;;;27.77;16.63;;;;;;;;;;6157287;23;20028;-79
2022/03/26 12:45:47;;;;;;;28.15;18.02;;;;;;;;;;6145570;23;20033;-78
2022/03/26 12:48:15;;;;;;;41.55;15.93;;;;;;;;;;6155313;23;20025;-78
2022/03/26 12:50:45;;;;;;;27.67;13.98;;;;;;;;;;6157561;23;20512;-77
2022/03/26 12:53:14;;;;;;;22.90;15.45;;;;;;;;;;6151979;23;20457;-79
2022/03/26 12:55:45;;;;;;;22.10;15.40;;;;;;;;;;6157558;23;20397;-79
2022/03/26 13:01:06;;;;;;;27.75;17.33;;;;;;;;;;6153366;23;20079;-78
2022/03/26 13:03:35;;;;;;;32.88;18.83;;;;;;;;;;6157061;23;20017;-76
2022/03/26 13:06:04;;;;;;;29.45;17.90;;;;;;;;;;6149382;23;20029;-85
2022/03/26 13:08:32;;;;;;;23.48;16.90;;;;;;;;;;6128837;23;20033;-79
2022/03/26 13:11:07;;;;;;;25.67;17.02;;;;;;;;;;6096464;23;20021;-80
2022/03/26 13:13:44;;;;;;;28.95;17.45;;;;;;;;;;6151163;23;20029;-79
2022/03/26 13:16:17;;;;;;;27.20;16.33;;;;;;;;;;6156789;23;20024;-78
2022/03/26 13:18:45;;;;;;;27.42;15.90;;;;;;;;;;6130522;23;20017;-78
2022/03/26 13:21:14;;;;;;;19.42;12.77;;;;;;;;;;6096283;23;20547;-81
2022/03/26 13:23:59;;;;;;;40.50;14.35;;;;;;;;;;6156937;23;20020;-80
2022/03/26 13:26:41;;;;;;;23.60;15.70;;;;;;;;;;6149606;23;20472;-83
2022/03/26 13:29:10;;;;;;;20.25;12.48;;;;;;;;;;6153726;23;20034;-87
2022/03/26 13:31:42;;;;;;;28.92;16.90;;;;;;;;;;6131619;23;20032;-85
2022/03/26 13:34:11;;;;;;;21.67;14.30;;;;;;;;;;6121375;23;20330;-86
2022/03/26 13:36:39;;;;;;;28.15;12.95;;;;;;;;;;6128759;23;20026;-80
2022/03/26 13:39:17;;;;;;;27.30;17.90;;;;;;;;;;6158053;23;20017;-80
2022/03/26 13:41:45;;;;;;;19.77;10.40;;;;;;;;;;6123994;23;20026;-81
2022/03/26 13:44:15;;;;;;;18.15;10.88;;;;;;;;;;6130688;23;20734;-78
2022/03/26 13:46:44;;;;;;;25.88;17.20;;;;;;;;;;6157546;23;20017;-81
2022/03/26 13:49:25;;;;;;;20.33;12.82;;;;;;;;;;6152060;23;20033;-81
2022/03/26 13:51:54;;;;;;;23.52;12.27;;;;;;;;;;6157443;23;20024;-79
2022/03/26 13:54:32;;;;;;;22.45;15.30;;;;;;;;;;6146388;23;20033;-78
2022/03/26 13:57:04;;;;;;;21.02;11.48;;;;;;;;;;6152951;23;20357;-78
2022/03/26 13:59:36;;;;;;;20.60;11.65;;;;;;;;;;6150790;23;20032;-81
2022/03/26 14:02:07;;;;;;;22.80;16.25;;;;;;;;;;6148583;23;20025;-79
2022/03/26 14:04:37;;;;;;;26.33;13.02;;;;;;;;;;6128716;23;20029;-80
2022/03/26 14:07:08;;;;;;;19.08;12.65;;;;;;;;;;6146306;23;20485;-77
2022/03/26 14:09:37;;;;;;;17.23;11.23;;;;;;;;;;6154385;23;20029;-78
2022/03/26 14:12:05;;;;;;;20.25;8.80;;;;;;;;;;6160793;23;20014;-80
2022/03/26 14:14:33;;;;;;;19.67;10.70;;;;;;;;;;6151297;23;20029;-79
2022/03/26 14:17:02;;;;;;;21.85;12.52;;;;;;;;;;6123709;23;20037;-78
2022/03/26 14:19:31;;;;;;;17.33;12.98;;;;;;;;;;6123386;23;20020;-79
2022/03/26 14:21:59;;;;;;;24.05;13.23;;;;;;;;;;6151026;23;20029;-79
2022/03/26 14:24:28;;;;;;;21.45;14.57;;;;;;;;;;6155644;23;20013;-82
2022/03/26 14:27:02;;;;;;;17.95;12.35;;;;;;;;;;6158550;23;20021;-79
2022/03/26 14:29:30;;;;;;;16.58;11.30;;;;;;;;;;6152281;23;20025;-79
2022/03/26 14:31:58;;;;;;;23.63;12.95;;;;;;;;;;6158861;23;20013;-79
2022/03/26 14:34:27;;;;;;;20.20;10.18;;;;;;;;;;6148113;23;20025;-79
2022/03/26 14:36:55;;;;;;;26.60;14.70;;;;;;;;;;6154818;23;20021;-81
2022/03/26 14:39:23;;;;;;;21.17;11.77;;;;;;;;;;6157565;23;20342;-81
2022/03/26 14:41:51;;;;;;;17.38;10.40;;;;;;;;;;6151528;23;20041;-80
2022/03/26 14:44:19;;;;;;;21.95;13.25;;;;;;;;;;6157610;23;20017;-81
2022/03/26 14:46:47;;;;;;;25.05;12.93;;;;;;;;;;6158941;23;20024;-81
2022/03/26 14:49:15;;;;;;;32.85;15.00;;;;;;;;;;6152142;23;20697;-79
2022/03/26 14:51:43;;;;;;;24.55;14.57;;;;;;;;;;6156251;23;20052;-81
2022/03/26 14:54:11;;;;;;;22.48;13.15;;;;;;;;;;6148678;23;20033;-80
2022/03/26 14:56:41;;;;;;;24.48;14.73;;;;;;;;;;6154719;23;20040;-80
2022/03/26 14:59:09;;;;;;;21.05;12.10;;;;;;;;;;6152484;23;20026;-79
2022/03/26 15:01:37;;;;;;;21.85;13.82;;;;;;;;;;6151450;23;20025;-82